sensor_id;sensor_type;location;lat;lon;timestamp;pressure;altitude;pressure_sealevel;temperature;humidity
75136;BME280;63707;52.212;9.540;2022-12-24T00:02:24;98778.19;;;5.66;100.00
75136;BME280;63707;52.212;9.540;2022-12-24T00:04:49;98785.88;;;5.63;100.00
75136;BME280;63707;52.212;9.540;2022-12-24T00:07:15;98789.00;;;5.60;100.00
75136;BME280;63707;52.212;9.540;2022-12-24T00:09:40;98792.72;;;5.59;100.00
75136;BME280;63707;52.212;9.540;2022-12-24T00:12:07;98791.06;;;5.58;100.00
75136;BME280;63707;52.212;9.540;2022-12-24T00:14:33;98792.72;;;5.59;100.00
75136;BME280;63707;52.212;9.540;2022-12-24T00:16:58;98791.06;;;5.58;100.00
75136;BME280;63707;52.212;9.540;2022-12-24T00:19:24;98785.66;;;5.58;100.00
75136;BME280;63707;52.212;9.540;2022-12-24T00:21:49;98786.50;;;5.65;100.00
75136;BME280;63707;52.212;9.540;2022-12-24T00:24:15;98796.69;;;5.63;100.00
75136;BME280;63707;52.212;9.540;2022-12-24T00:26:40;98787.75;;;5.62;100.00
75136;BME280;63707;52.212;9.540;2022-12-24T00:29:07;98786.72;;;5.63;100.00
75136;BME280;63707;52.212;9.540;2022-12-24T00:31:33;98787.75;;;5.62;100.00
75136;BME280;63707;52.212;9.540;2022-12-24T00:33:58;98792.72;;;5.65;100.00
75136;BME280;63707;52.212;9.540;2022-12-24T00:36:24;98794.38;;;5.60;100.00
75136;BME280;63707;52.212;9.540;2022-12-24T00:38:49;98800.84;;;5.65;100.00
75136;BME280;63707;52.212;9.540;2022-12-24T00:41:15;98787.94;;;5.61;100.00
75136;BME280;63707;52.212;9.540;2022-12-24T00:43:50;98801.66;;;5.59;100.00
75136;BME280;63707;52.212;9.540;2022-12-24T00:46:17;98796.06;;;5.61;100.00
75136;BME280;63707;52.212;9.540;2022-12-24T00:48:42;98794.59;;;5.58;100.00
75136;BME280;63707;52.212;9.540;2022-12-24T00:51:08;98796.47;;;5.58;100.00
75136;BME280;63707;52.212;9.540;2022-12-24T00:53:33;98800.22;;;5.63;100.00
75136;BME280;63707;52.212;9.540;2022-12-24T00:55:59;98806.66;;;5.62;100.00
75136;BME280;63707;52.212;9.540;2022-12-24T00:58:24;98814.34;;;5.65;100.00
75136;BME280;63707;52.212;9.540;2022-12-24T01:00:50;98811.84;;;5.64;100.00
75136;BME280;63707;52.212;9.540;2022-12-24T01:03:17;98819.34;;;5.62;100.00
75136;BME280;63707;52.212;9.540;2022-12-24T01:05:42;98823.69;;;5.63;100.00
75136;BME280;63707;52.212;9.540;2022-12-24T01:08:08;98817.47;;;5.62;100.00
75136;BME280;63707;52.212;9.540;2022-12-24T01:10:33;98816.22;;;5.65;100.00
75136;BME280;63707;52.212;9.540;2022-12-24T01:13:00;98818.72;;;5.66;100.00
75136;BME280;63707;52.212;9.540;2022-12-24T01:15:25;98824.78;;;5.68;100.00
75136;BME280;63707;52.212;9.540;2022-12-24T01:17:51;98827.28;;;5.70;100.00
75136;BME280;63707;52.212;9.540;2022-12-24T01:20:18;98832.91;;;5.75;100.00
75136;BME280;63707;52.212;9.540;2022-12-24T01:22:43;98837.06;;;5.78;100.00
75136;BME280;63707;52.212;9.540;2022-12-24T01:25:09;98838.94;;;5.84;100.00
75136;BME280;63707;52.212;9.540;2022-12-24T01:27:35;98835.47;;;6.23;100.00
75136;BME280;63707;52.212;9.540;2022-12-24T01:30:01;98833.16;;;6.66;100.00
75136;BME280;63707;52.212;9.540;2022-12-24T01:32:26;98831.56;;;7.10;100.00
75136;BME280;63707;52.212;9.540;2022-12-24T01:34:52;98834.28;;;7.54;100.00
75136;BME280;63707;52.212;9.540;2022-12-24T01:37:18;98840.28;;;7.63;100.00
75136;BME280;63707;52.212;9.540;2022-12-24T01:39:44;98830.63;;;7.74;100.00
75136;BME280;63707;52.212;9.540;2022-12-24T01:42:16;98834.75;;;7.83;100.00
75136;BME280;63707;52.212;9.540;2022-12-24T01:48:02;98846.38;;;7.90;100.00
75136;BME280;63707;52.212;9.540;2022-12-24T01:50:28;98842.72;;;8.09;100.00
75136;BME280;63707;52.212;9.540;2022-12-24T01:52:55;98851.50;;;8.05;100.00
75136;BME280;63707;52.212;9.540;2022-12-24T01:55:21;98854.63;;;8.02;100.00
75136;BME280;63707;52.212;9.540;2022-12-24T01:57:50;98852.91;;;8.14;100.00
75136;BME280;63707;52.212;9.540;2022-12-24T02:00:17;98849.81;;;8.10;100.00
75136;BME280;63707;52.212;9.540;2022-12-24T02:02:46;98856.00;;;8.17;100.00
75136;BME280;63707;52.212;9.540;2022-12-24T02:05:16;98860.66;;;8.10;100.00
75136;BME280;63707;52.212;9.540;2022-12-24T02:07:43;98863.97;;;8.12;100.00
75136;BME280;63707;52.212;9.540;2022-12-24T02:10:12;98867.69;;;8.18;100.00
75136;BME280;63707;52.212;9.540;2022-12-24T02:12:39;98870.41;;;8.18;100.00
75136;BME280;63707;52.212;9.540;2022-12-24T02:15:06;98861.94;;;8.33;100.00
75136;BME280;63707;52.212;9.540;2022-12-24T02:17:38;98862.03;;;8.19;100.00
75136;BME280;63707;52.212;9.540;2022-12-24T02:20:30;98876.16;;;8.28;100.00
75136;BME280;63707;52.212;9.540;2022-12-24T02:23:25;98872.00;;;8.26;100.00
75136;BME280;63707;52.212;9.540;2022-12-24T02:26:13;98881.19;;;8.25;100.00
75136;BME280;63707;52.212;9.540;2022-12-24T02:28:57;98880.59;;;8.23;100.00
75136;BME280;63707;52.212;9.540;2022-12-24T02:31:33;98894.91;;;8.36;98.65
75136;BME280;63707;52.212;9.540;2022-12-24T02:34:05;98874.06;;;8.30;98.93
75136;BME280;63707;52.212;9.540;2022-12-24T02:36:33;98893.25;;;8.35;98.59
75136;BME280;63707;52.212;9.540;2022-12-24T02:39:02;98885.13;;;8.29;99.32
75136;BME280;63707;52.212;9.540;2022-12-24T02:41:32;98892.84;;;8.32;98.64
75136;BME280;63707;52.212;9.540;2022-12-24T02:44:19;98896.22;;;8.27;99.23
75136;BME280;63707;52.212;9.540;2022-12-24T02:46:48;98888.91;;;8.28;98.85
75136;BME280;63707;52.212;9.540;2022-12-24T02:49:15;98902.97;;;8.18;99.53
75136;BME280;63707;52.212;9.540;2022-12-24T02:51:40;98891.19;;;8.31;98.94
75136;BME280;63707;52.212;9.540;2022-12-24T02:54:06;98908.28;;;8.31;97.92
75136;BME280;63707;52.212;9.540;2022-12-24T02:56:50;98932.97;;;8.23;98.57
75136;BME280;63707;52.212;9.540;2022-12-24T02:59:35;98908.13;;;8.26;98.22
75136;BME280;63707;52.212;9.540;2022-12-24T03:02:14;98910.44;;;8.23;99.05
75136;BME280;63707;52.212;9.540;2022-12-24T03:04:49;98919.72;;;8.02;100.00
75136;BME280;63707;52.212;9.540;2022-12-24T03:07:20;98933.72;;;7.99;100.00
75136;BME280;63707;52.212;9.540;2022-12-24T03:09:56;98932.91;;;7.98;100.00
75136;BME280;63707;52.212;9.540;2022-12-24T03:12:27;98929.56;;;7.96;100.00
75136;BME280;63707;52.212;9.540;2022-12-24T03:14:54;98924.75;;;7.98;100.00
75136;BME280;63707;52.212;9.540;2022-12-24T03:17:22;98932.25;;;8.03;100.00
75136;BME280;63707;52.212;9.540;2022-12-24T03:19:47;98929.13;;;8.06;99.19
75136;BME280;63707;52.212;9.540;2022-12-24T03:22:15;98943.91;;;8.10;98.24
75136;BME280;63707;52.212;9.540;2022-12-24T03:24:41;98949.13;;;8.11;97.45
75136;BME280;63707;52.212;9.540;2022-12-24T03:27:07;98935.56;;;8.11;97.55
75136;BME280;63707;52.212;9.540;2022-12-24T03:29:34;98953.50;;;8.12;96.88
75136;BME280;63707;52.212;9.540;2022-12-24T03:32:01;98967.25;;;8.17;96.41
75136;BME280;63707;52.212;9.540;2022-12-24T03:34:28;98965.84;;;8.08;97.26
75136;BME280;63707;52.212;9.540;2022-12-24T03:36:54;98976.72;;;7.95;98.23
75136;BME280;63707;52.212;9.540;2022-12-24T03:39:20;98981.53;;;7.93;98.79
75136;BME280;63707;52.212;9.540;2022-12-24T03:41:46;98989.03;;;7.98;98.67
75136;BME280;63707;52.212;9.540;2022-12-24T03:44:11;98989.25;;;7.96;98.45
75136;BME280;63707;52.212;9.540;2022-12-24T03:46:36;98996.13;;;7.99;98.22
75136;BME280;63707;52.212;9.540;2022-12-24T03:49:02;99005.75;;;7.95;98.13
75136;BME280;63707;52.212;9.540;2022-12-24T03:51:29;98999.91;;;7.91;98.37
75136;BME280;63707;52.212;9.540;2022-12-24T03:53:55;99013.69;;;7.89;98.98
75136;BME280;63707;52.212;9.540;2022-12-24T03:56:21;99011.66;;;7.78;99.33
75136;BME280;63707;52.212;9.540;2022-12-24T03:58:47;99019.97;;;7.83;99.49
75136;BME280;63707;52.212;9.540;2022-12-24T04:01:12;99026.06;;;7.72;100.00
75136;BME280;63707;52.212;9.540;2022-12-24T04:03:38;99028.13;;;7.77;100.00
75136;BME280;63707;52.212;9.540;2022-12-24T04:06:06;99034.66;;;7.63;100.00
75136;BME280;63707;52.212;9.540;2022-12-24T04:08:34;99017.75;;;7.61;100.00
75136;BME280;63707;52.212;9.540;2022-12-24T04:10:59;99038.16;;;7.70;100.00
75136;BME280;63707;52.212;9.540;2022-12-24T04:13:25;99048.78;;;7.78;99.67
75136;BME280;63707;52.212;9.540;2022-12-24T04:15:56;99060.06;;;7.75;99.38
75136;BME280;63707;52.212;9.540;2022-12-24T04:18:22;99052.56;;;7.70;99.48
75136;BME280;63707;52.212;9.540;2022-12-24T04:20:47;99048.34;;;7.87;97.57
75136;BME280;63707;52.212;9.540;2022-12-24T04:23:13;99048.34;;;7.87;97.17
75136;BME280;63707;52.212;9.540;2022-12-24T04:25:39;99051.66;;;7.89;96.25
75136;BME280;63707;52.212;9.540;2022-12-24T04:28:05;99065.66;;;7.86;96.64
75136;BME280;63707;52.212;9.540;2022-12-24T04:30:30;99068.16;;;7.88;96.52
75136;BME280;63707;52.212;9.540;2022-12-24T04:32:56;99075.47;;;7.81;97.11
75136;BME280;63707;52.212;9.540;2022-12-24T04:35:21;99080.03;;;7.87;96.29
75136;BME280;63707;52.212;9.540;2022-12-24T04:37:47;99067.94;;;7.89;95.37
75136;BME280;63707;52.212;9.540;2022-12-24T04:40:12;99066.72;;;7.72;96.72
75136;BME280;63707;52.212;9.540;2022-12-24T04:42:39;99073.00;;;7.73;96.77
75136;BME280;63707;52.212;9.540;2022-12-24T04:45:06;99078.41;;;7.73;96.63
75136;BME280;63707;52.212;9.540;2022-12-24T04:47:32;99069.25;;;7.67;96.57
75136;BME280;63707;52.212;9.540;2022-12-24T04:49:57;99074.44;;;7.75;96.43
75136;BME280;63707;52.212;9.540;2022-12-24T04:52:23;99080.50;;;7.71;96.44
75136;BME280;63707;52.212;9.540;2022-12-24T04:54:48;99076.97;;;7.70;96.62
75136;BME280;63707;52.212;9.540;2022-12-24T04:57:14;99078.19;;;7.74;95.96
75136;BME280;63707;52.212;9.540;2022-12-24T04:59:41;99086.34;;;7.74;95.91
75136;BME280;63707;52.212;9.540;2022-12-24T05:02:07;99101.59;;;7.62;96.99
75136;BME280;63707;52.212;9.540;2022-12-24T05:04:32;99095.13;;;7.63;97.35
75136;BME280;63707;52.212;9.540;2022-12-24T05:06:58;99104.09;;;7.57;97.55
75136;BME280;63707;52.212;9.540;2022-12-24T05:09:23;99112.00;;;7.52;97.99
75136;BME280;63707;52.212;9.540;2022-12-24T05:11:48;99110.75;;;7.54;97.79
75136;BME280;63707;52.212;9.540;2022-12-24T05:14:14;99108.25;;;7.53;98.35
75136;BME280;63707;52.212;9.540;2022-12-24T05:16:41;99113.66;;;7.53;98.79
75136;BME280;63707;52.212;9.540;2022-12-24T05:19:08;99127.44;;;7.45;99.35
75136;BME280;63707;52.212;9.540;2022-12-24T05:21:33;99116.78;;;7.50;98.94
75136;BME280;63707;52.212;9.540;2022-12-24T05:23:59;99114.94;;;7.57;98.15
75136;BME280;63707;52.212;9.540;2022-12-24T05:26:45;99131.22;;;7.57;97.98
75136;BME280;63707;52.212;9.540;2022-12-24T05:29:12;99122.44;;;7.48;98.49
75136;BME280;63707;52.212;9.540;2022-12-24T05:31:39;99131.38;;;7.55;97.82
75136;BME280;63707;52.212;9.540;2022-12-24T05:34:06;99134.75;;;7.57;98.32
75136;BME280;63707;52.212;9.540;2022-12-24T05:36:32;99148.50;;;7.63;97.20
75136;BME280;63707;52.212;9.540;2022-12-24T05:38:58;99145.59;;;7.57;97.91
75136;BME280;63707;52.212;9.540;2022-12-24T05:41:23;99147.44;;;7.50;98.25
75136;BME280;63707;52.212;9.540;2022-12-24T05:43:50;99150.78;;;7.52;97.67
75136;BME280;63707;52.212;9.540;2022-12-24T05:46:17;99155.19;;;7.60;97.20
75136;BME280;63707;52.212;9.540;2022-12-24T05:48:43;99149.75;;;7.60;96.60
75136;BME280;63707;52.212;9.540;2022-12-24T05:51:11;99164.34;;;7.66;96.37
75136;BME280;63707;52.212;9.540;2022-12-24T05:53:37;99171.44;;;7.53;97.07
75136;BME280;63707;52.212;9.540;2022-12-24T05:56:04;99178.31;;;7.56;97.02
75136;BME280;63707;52.212;9.540;2022-12-24T05:58:30;99167.91;;;7.60;96.62
75136;BME280;63707;52.212;9.540;2022-12-24T06:00:56;99162.91;;;7.63;95.86
75136;BME280;63707;52.212;9.540;2022-12-24T06:03:21;99172.28;;;7.74;94.98
75136;BME280;63707;52.212;9.540;2022-12-24T06:05:46;99166.03;;;7.60;95.33
75136;BME280;63707;52.212;9.540;2022-12-24T06:08:13;99176.88;;;7.60;95.78
75136;BME280;63707;52.212;9.540;2022-12-24T06:10:39;99184.78;;;7.62;95.31
75136;BME280;63707;52.212;9.540;2022-12-24T06:13:04;99190.22;;;7.62;95.23
75136;BME280;63707;52.212;9.540;2022-12-24T06:15:30;99177.50;;;7.62;94.86
75136;BME280;63707;52.212;9.540;2022-12-24T06:17:55;99193.56;;;7.64;94.37
75136;BME280;63707;52.212;9.540;2022-12-24T06:20:21;99182.09;;;7.62;94.55
75136;BME280;63707;52.212;9.540;2022-12-24T06:22:46;99187.09;;;7.65;94.17
75136;BME280;63707;52.212;9.540;2022-12-24T06:25:13;99194.16;;;7.46;94.60
75136;BME280;63707;52.212;9.540;2022-12-24T06:27:39;99185.19;;;7.45;94.94
75136;BME280;63707;52.212;9.540;2022-12-24T06:30:06;99194.56;;;7.49;94.05
75136;BME280;63707;52.212;9.540;2022-12-24T06:32:31;99199.78;;;7.51;93.57
75136;BME280;63707;52.212;9.540;2022-12-24T06:34:57;99201.03;;;7.48;93.63
75136;BME280;63707;52.212;9.540;2022-12-24T06:37:22;99218.53;;;7.33;94.11
75136;BME280;63707;52.212;9.540;2022-12-24T06:39:48;99224.78;;;7.40;94.28
75136;BME280;63707;52.212;9.540;2022-12-24T06:42:15;99224.38;;;7.43;94.19
75136;BME280;63707;52.212;9.540;2022-12-24T06:44:40;99225.22;;;7.43;93.92
75136;BME280;63707;52.212;9.540;2022-12-24T06:47:06;99221.28;;;7.72;93.80
75136;BME280;63707;52.212;9.540;2022-12-24T06:49:31;99225.44;;;7.55;92.85
75136;BME280;63707;52.212;9.540;2022-12-24T06:51:57;99225.63;;;7.53;93.11
75136;BME280;63707;52.212;9.540;2022-12-24T06:54:22;99225.63;;;7.40;93.76
75136;BME280;63707;52.212;9.540;2022-12-24T06:56:48;99245.00;;;7.44;93.04
75136;BME280;63707;52.212;9.540;2022-12-24T06:59:15;99235.41;;;7.28;93.88
75136;BME280;63707;52.212;9.540;2022-12-24T07:01:40;99243.94;;;7.18;93.99
75136;BME280;63707;52.212;9.540;2022-12-24T07:04:06;99241.84;;;7.14;94.59
75136;BME280;63707;52.212;9.540;2022-12-24T07:06:33;99254.13;;;7.16;94.52
75136;BME280;63707;52.212;9.540;2022-12-24T07:08:59;99252.88;;;7.12;94.64
75136;BME280;63707;52.212;9.540;2022-12-24T07:11:24;99261.44;;;7.22;93.64
75136;BME280;63707;52.212;9.540;2022-12-24T07:13:51;99271.63;;;7.14;94.08
75136;BME280;63707;52.212;9.540;2022-12-24T07:16:17;99258.53;;;7.24;93.78
75136;BME280;63707;52.212;9.540;2022-12-24T07:18:43;99270.63;;;7.21;93.73
75136;BME280;63707;52.212;9.540;2022-12-24T07:21:09;99262.91;;;7.18;94.04
75136;BME280;63707;52.212;9.540;2022-12-24T07:23:35;99288.25;;;7.04;94.53
75136;BME280;63707;52.212;9.540;2022-12-24T07:26:02;99276.81;;;7.09;94.75
75136;BME280;63707;52.212;9.540;2022-12-24T07:28:28;99279.09;;;7.05;94.94
75136;BME280;63707;52.212;9.540;2022-12-24T07:30:54;99291.19;;;7.09;95.00
75136;BME280;63707;52.212;9.540;2022-12-24T07:33:20;99289.16;;;7.18;94.54
75136;BME280;63707;52.212;9.540;2022-12-24T07:35:46;99291.19;;;7.09;95.17
75136;BME280;63707;52.212;9.540;2022-12-24T07:38:11;99298.09;;;7.12;94.98
75136;BME280;63707;52.212;9.540;2022-12-24T07:40:37;99309.63;;;7.34;94.57
75136;BME280;63707;52.212;9.540;2022-12-24T07:43:02;99312.50;;;7.19;95.22
75136;BME280;63707;52.212;9.540;2022-12-24T07:45:28;99312.28;;;7.14;95.43
75136;BME280;63707;52.212;9.540;2022-12-24T07:47:53;99326.88;;;7.19;95.28
75136;BME280;63707;52.212;9.540;2022-12-24T07:50:20;99337.72;;;7.19;95.67
75136;BME280;63707;52.212;9.540;2022-12-24T07:52:46;99332.13;;;7.28;95.85
75136;BME280;63707;52.212;9.540;2022-12-24T07:55:11;99328.56;;;7.27;95.65
75136;BME280;63707;52.212;9.540;2022-12-24T07:57:37;99335.06;;;7.33;95.44
75136;BME280;63707;52.212;9.540;2022-12-24T08:00:03;99332.56;;;7.38;95.55
75136;BME280;63707;52.212;9.540;2022-12-24T08:02:29;99334.22;;;7.32;95.52
75136;BME280;63707;52.212;9.540;2022-12-24T08:04:55;99342.38;;;7.39;95.38
75136;BME280;63707;52.212;9.540;2022-12-24T08:07:22;99340.69;;;7.31;95.58
75136;BME280;63707;52.212;9.540;2022-12-24T08:09:47;99349.66;;;7.38;95.91
75136;BME280;63707;52.212;9.540;2022-12-24T08:12:13;99348.81;;;7.31;96.56
75136;BME280;63707;52.212;9.540;2022-12-24T08:14:38;99353.81;;;7.34;96.28
75136;BME280;63707;52.212;9.540;2022-12-24T08:17:04;99352.78;;;7.35;96.46
75136;BME280;63707;52.212;9.540;2022-12-24T08:19:30;99350.50;;;7.39;96.29
75136;BME280;63707;52.212;9.540;2022-12-24T08:21:55;99352.38;;;7.38;96.74
75136;BME280;63707;52.212;9.540;2022-12-24T08:24:22;99353.22;;;7.39;96.76
75136;BME280;63707;52.212;9.540;2022-12-24T08:26:48;99359.06;;;7.42;96.30
75136;BME280;63707;52.212;9.540;2022-12-24T08:29:13;99360.53;;;7.45;96.15
75136;BME280;63707;52.212;9.540;2022-12-24T08:31:40;99366.16;;;7.43;96.57
75136;BME280;63707;52.212;9.540;2022-12-24T08:34:06;99368.25;;;7.54;95.66
75136;BME280;63707;52.212;9.540;2022-12-24T08:36:32;99374.16;;;7.58;95.83
75136;BME280;63707;52.212;9.540;2022-12-24T08:38:58;99374.78;;;7.60;95.63
75136;BME280;63707;52.212;9.540;2022-12-24T08:41:29;99385.22;;;7.63;95.62
75136;BME280;63707;52.212;9.540;2022-12-24T08:43:54;99379.59;;;7.65;95.44
75136;BME280;63707;52.212;9.540;2022-12-24T08:46:20;99377.47;;;7.60;95.82
75136;BME280;63707;52.212;9.540;2022-12-24T08:48:45;99384.81;;;7.66;95.46
75136;BME280;63707;52.212;9.540;2022-12-24T08:51:11;99392.91;;;7.60;96.19
75136;BME280;63707;52.212;9.540;2022-12-24T08:53:38;99392.72;;;7.61;96.52
75136;BME280;63707;52.212;9.540;2022-12-24T08:56:05;99397.09;;;7.62;96.65
75136;BME280;63707;52.212;9.540;2022-12-24T08:58:32;99396.66;;;7.58;97.34
75136;BME280;63707;52.212;9.540;2022-12-24T09:00:58;99400.41;;;7.57;97.15
75136;BME280;63707;52.212;9.540;2022-12-24T09:03:25;99406.69;;;7.58;96.99
75136;BME280;63707;52.212;9.540;2022-12-24T09:05:51;99403.97;;;7.65;96.67
75136;BME280;63707;52.212;9.540;2022-12-24T09:08:17;99405.44;;;7.61;96.66
75136;BME280;63707;52.212;9.540;2022-12-24T09:10:43;99405.22;;;7.62;96.83
75136;BME280;63707;52.212;9.540;2022-12-24T09:13:08;99416.31;;;7.74;96.77
75136;BME280;63707;52.212;9.540;2022-12-24T09:15:35;99416.69;;;7.64;96.29
75136;BME280;63707;52.212;9.540;2022-12-24T09:18:01;99425.91;;;7.70;96.12
75136;BME280;63707;52.212;9.540;2022-12-24T09:20:26;99417.16;;;7.74;96.23
75136;BME280;63707;52.212;9.540;2022-12-24T09:22:52;99430.91;;;7.73;96.72
75136;BME280;63707;52.212;9.540;2022-12-24T09:25:18;99431.31;;;7.70;96.98
75136;BME280;63707;52.212;9.540;2022-12-24T09:27:43;99428.19;;;7.73;96.70
75136;BME280;63707;52.212;9.540;2022-12-24T09:30:10;99437.56;;;7.64;97.88
75136;BME280;63707;52.212;9.540;2022-12-24T09:32:37;99441.34;;;7.69;98.08
75136;BME280;63707;52.212;9.540;2022-12-24T09:35:03;99457.59;;;7.69;97.99
75136;BME280;63707;52.212;9.540;2022-12-24T09:37:29;99455.91;;;7.62;98.84
75136;BME280;63707;52.212;9.540;2022-12-24T09:39:54;99465.34;;;7.79;97.97
75136;BME280;63707;52.212;9.540;2022-12-24T09:42:30;99468.06;;;7.79;97.74
75136;BME280;63707;52.212;9.540;2022-12-24T09:45:03;99468.50;;;7.82;97.74
75136;BME280;63707;52.212;9.540;2022-12-24T09:47:33;99476.84;;;7.87;97.19
75136;BME280;63707;52.212;9.540;2022-12-24T09:50:17;99477.91;;;7.86;97.21
75136;BME280;63707;52.212;9.540;2022-12-24T09:52:47;99489.38;;;7.88;97.11
75136;BME280;63707;52.212;9.540;2022-12-24T09:55:19;99497.31;;;7.90;97.23
75136;BME280;63707;52.212;9.540;2022-12-24T09:57:46;99492.31;;;8.74;95.24
75136;BME280;63707;52.212;9.540;2022-12-24T10:00:18;99504.16;;;8.34;93.49
75136;BME280;63707;52.212;9.540;2022-12-24T10:02:44;99505.25;;;7.98;95.64
75136;BME280;63707;52.212;9.540;2022-12-24T10:05:14;99492.53;;;7.92;96.47
75136;BME280;63707;52.212;9.540;2022-12-24T10:07:47;99509.00;;;7.90;96.37
75136;BME280;63707;52.212;9.540;2022-12-24T10:10:21;99519.47;;;8.00;95.84
75136;BME280;63707;52.212;9.540;2022-12-24T10:12:58;99520.72;;;7.98;96.08
75136;BME280;63707;52.212;9.540;2022-12-24T10:15:30;99516.59;;;8.08;96.32
75136;BME280;63707;52.212;9.540;2022-12-24T10:18:06;99520.78;;;8.11;95.67
75136;BME280;63707;52.212;9.540;2022-12-24T10:20:41;99517.44;;;8.09;96.95
75136;BME280;63707;52.212;9.540;2022-12-24T10:23:14;99515.97;;;8.06;97.08
75136;BME280;63707;52.212;9.540;2022-12-24T10:25:47;99527.03;;;8.05;97.82
75136;BME280;63707;52.212;9.540;2022-12-24T10:28:16;99533.03;;;8.00;98.60
75136;BME280;63707;52.212;9.540;2022-12-24T10:30:43;99531.75;;;7.89;98.92
75136;BME280;63707;52.212;9.540;2022-12-24T10:33:17;99524.84;;;7.87;99.05
75136;BME280;63707;52.212;9.540;2022-12-24T10:35:48;99527.16;;;7.90;98.39
75136;BME280;63707;52.212;9.540;2022-12-24T10:38:16;99538.00;;;7.90;98.46
75136;BME280;63707;52.212;9.540;2022-12-24T10:40:43;99536.53;;;7.87;99.07
75136;BME280;63707;52.212;9.540;2022-12-24T10:43:13;99530.25;;;7.80;99.54
75136;BME280;63707;52.212;9.540;2022-12-24T10:45:43;99534.00;;;7.79;99.50
75136;BME280;63707;52.212;9.540;2022-12-24T10:48:15;99537.94;;;7.77;100.00
75136;BME280;63707;52.212;9.540;2022-12-24T10:50:51;99544.00;;;7.79;100.00
75136;BME280;63707;52.212;9.540;2022-12-24T10:53:21;99539.41;;;7.79;100.00
75136;BME280;63707;52.212;9.540;2022-12-24T10:55:48;99556.91;;;7.77;100.00
75136;BME280;63707;52.212;9.540;2022-12-24T10:58:16;99560.88;;;7.74;100.00
75136;BME280;63707;52.212;9.540;2022-12-24T11:00:48;99555.59;;;7.60;100.00
75136;BME280;63707;52.212;9.540;2022-12-24T11:03:21;99559.13;;;7.60;100.00
75136;BME280;63707;52.212;9.540;2022-12-24T11:05:59;99557.06;;;7.62;100.00
75136;BME280;63707;52.212;9.540;2022-12-24T11:08:25;99568.09;;;7.61;100.00
75136;BME280;63707;52.212;9.540;2022-12-24T11:10:55;99562.03;;;7.58;100.00
75136;BME280;63707;52.212;9.540;2022-12-24T11:13:24;99554.94;;;7.57;100.00
75136;BME280;63707;52.212;9.540;2022-12-24T11:15:59;99562.41;;;7.55;100.00
75136;BME280;63707;52.212;9.540;2022-12-24T11:18:25;99564.75;;;7.58;99.81
75136;BME280;63707;52.212;9.540;2022-12-24T11:20:52;99565.72;;;7.51;99.33
75136;BME280;63707;52.212;9.540;2022-12-24T11:23:17;99564.94;;;7.57;97.65
75136;BME280;63707;52.212;9.540;2022-12-24T11:25:46;99569.97;;;7.60;96.91
75136;BME280;63707;52.212;9.540;2022-12-24T11:28:19;99581.78;;;7.52;97.36
75136;BME280;63707;52.212;9.540;2022-12-24T11:30:55;99581.09;;;7.44;99.24
75136;BME280;63707;52.212;9.540;2022-12-24T11:33:21;99594.47;;;7.45;99.69
75136;BME280;63707;52.212;9.540;2022-12-24T11:35:50;99590.28;;;7.43;99.85
75136;BME280;63707;52.212;9.540;2022-12-24T11:38:20;99581.91;;;7.38;100.00
75136;BME280;63707;52.212;9.540;2022-12-24T11:40:47;99580.63;;;7.34;100.00
75136;BME280;63707;52.212;9.540;2022-12-24T11:43:15;99574.91;;;7.22;100.00
75136;BME280;63707;52.212;9.540;2022-12-24T11:45:47;99577.03;;;7.26;100.00
75136;BME280;63707;52.212;9.540;2022-12-24T11:48:24;99570.75;;;7.26;100.00
75136;BME280;63707;52.212;9.540;2022-12-24T11:50:55;99579.94;;;7.25;100.00
75136;BME280;63707;52.212;9.540;2022-12-24T11:53:25;99576.59;;;7.23;100.00
75136;BME280;63707;52.212;9.540;2022-12-24T11:55:55;99573.09;;;7.29;100.00
75136;BME280;63707;52.212;9.540;2022-12-24T11:58:25;99581.91;;;7.38;100.00
75136;BME280;63707;52.212;9.540;2022-12-24T12:01:02;99573.97;;;7.36;100.00
75136;BME280;63707;52.212;9.540;2022-12-24T12:03:32;99587.38;;;7.44;100.00
75136;BME280;63707;52.212;9.540;2022-12-24T12:06:01;99582.13;;;7.43;100.00
75136;BME280;63707;52.212;9.540;2022-12-24T12:08:30;99586.16;;;7.53;100.00
75136;BME280;63707;52.212;9.540;2022-12-24T12:10:57;99587.09;;;7.61;100.00
75136;BME280;63707;52.212;9.540;2022-12-24T12:13:27;99589.66;;;7.75;100.00
75136;BME280;63707;52.212;9.540;2022-12-24T12:16:05;99588.66;;;7.83;99.91
75136;BME280;63707;52.212;9.540;2022-12-24T12:18:35;99587.78;;;7.76;100.00
75136;BME280;63707;52.212;9.540;2022-12-24T12:21:03;99588.66;;;7.83;99.27
75136;BME280;63707;52.212;9.540;2022-12-24T12:23:33;99580.56;;;7.89;99.76
75136;BME280;63707;52.212;9.540;2022-12-24T12:26:04;99587.91;;;7.96;98.85
75136;BME280;63707;52.212;9.540;2022-12-24T12:28:35;99589.16;;;8.00;98.47
75136;BME280;63707;52.212;9.540;2022-12-24T12:31:04;99596.16;;;8.15;97.93
75136;BME280;63707;52.212;9.540;2022-12-24T12:33:38;99601.91;;;8.47;97.78
75136;BME280;63707;52.212;9.540;2022-12-24T12:36:06;99597.53;;;8.46;96.90
75136;BME280;63707;52.212;9.540;2022-12-24T12:38:34;99579.69;;;8.24;97.61
75136;BME280;63707;52.212;9.540;2022-12-24T12:41:21;99600.09;;;8.13;97.68
75136;BME280;63707;52.212;9.540;2022-12-24T12:44:19;99594.25;;;8.09;97.23
75136;BME280;63707;52.212;9.540;2022-12-24T12:47:02;99587.97;;;8.09;97.35
75136;BME280;63707;52.212;9.540;2022-12-24T12:49:41;99580.13;;;8.27;96.71
75136;BME280;63707;52.212;9.540;2022-12-24T12:52:18;99587.22;;;8.28;96.27
75136;BME280;63707;52.212;9.540;2022-12-24T12:54:58;99599.72;;;8.23;96.42
75136;BME280;63707;52.212;9.540;2022-12-24T12:57:29;99586.75;;;8.11;97.32
75136;BME280;63707;52.212;9.540;2022-12-24T13:00:00;99590.53;;;8.24;97.04
75136;BME280;63707;52.212;9.540;2022-12-24T13:02:44;99601.16;;;8.12;96.75
75136;BME280;63707;52.212;9.540;2022-12-24T13:08:32;99599.34;;;8.32;95.99
75136;BME280;63707;52.212;9.540;2022-12-24T13:11:11;99593.91;;;8.32;95.80
75136;BME280;63707;52.212;9.540;2022-12-24T13:13:50;99594.63;;;8.47;95.22
75136;BME280;63707;52.212;9.540;2022-12-24T13:16:57;99601.06;;;8.40;95.83
75136;BME280;63707;52.212;9.540;2022-12-24T13:19:38;99610.28;;;8.45;95.48
75136;BME280;63707;52.212;9.540;2022-12-24T13:22:14;99600.44;;;8.38;95.71